Time;durP1;ratioP1;P1;durP2;ratioP2;P2;SDS_P1;SDS_P2;PMS_P1;PMS_P2;Temp;Humidity;BMP_temperature;BMP_pressure;BME280_temperature;BME280_humidity;BME280_pressure;Samples;Min_cycle;Max_cycle;Signal;HPM_P1;HPM_P2
2021/09/17 00:01:56;;;;;;;24.65;17.77;;;13.70;99.90;;;;;;6169169;23;20255;-84
2021/09/17 00:04:22;;;;;;;23.70;17.20;;;13.70;99.90;;;;;;6169312;23;20044;-84
2021/09/17 00:06:47;;;;;;;25.05;18.15;;;13.90;99.90;;;;;;6169351;23;20019;-84
2021/09/17 00:09:15;;;;;;;23.73;17.00;;;13.80;99.90;;;;;;6144944;23;20056;-84
2021/09/17 00:11:41;;;;;;;24.25;18.45;;;13.80;99.90;;;;;;6169385;23;20012;-84
2021/09/17 00:14:06;;;;;;;25.25;17.75;;;13.80;99.90;;;;;;6168981;23;20061;-84
2021/09/17 00:16:32;;;;;;;26.15;18.80;;;13.70;99.90;;;;;;6169075;23;19998;-84
2021/09/17 00:18:57;;;;;;;25.95;18.15;;;13.70;99.90;;;;;;6168534;23;20010;-84
2021/09/17 00:21:23;;;;;;;27.42;19.95;;;13.70;99.90;;;;;;6168603;23;20063;-84
2021/09/17 00:23:49;;;;;;;26.48;18.77;;;13.80;99.90;;;;;;6168414;23;20100;-84
2021/09/17 00:26:14;;;;;;;29.63;18.20;;;13.80;99.90;;;;;;6168784;23;20006;-84
2021/09/17 00:28:40;;;;;;;27.27;17.58;;;13.80;99.90;;;;;;6168929;23;20029;-83
2021/09/17 00:31:05;;;;;;;25.60;18.55;;;13.70;99.90;;;;;;6169159;23;20076;-83
2021/09/17 00:33:31;;;;;;;26.73;18.85;;;13.70;99.90;;;;;;6168870;23;20048;-84
2021/09/17 00:35:57;;;;;;;29.92;20.38;;;13.80;99.90;;;;;;6169015;23;20028;-83
2021/09/17 00:38:23;;;;;;;29.52;19.95;;;13.80;99.90;;;;;;6168679;23;20009;-84
2021/09/17 00:40:48;;;;;;;27.73;20.42;;;13.80;99.90;;;;;;6168952;23;20005;-84
2021/09/17 00:43:14;;;;;;;29.42;19.98;;;13.80;99.90;;;;;;6168537;23;20013;-84
2021/09/17 00:45:41;;;;;;;29.38;19.67;;;13.80;99.90;;;;;;6168490;23;20016;-84
2021/09/17 00:48:06;;;;;;;29.98;21.15;;;13.80;99.90;;;;;;6168584;23;20442;-85
2021/09/17 00:50:32;;;;;;;27.67;20.00;;;13.80;99.90;;;;;;6170273;23;20021;-84
2021/09/17 00:52:58;;;;;;;28.48;19.85;;;13.80;99.90;;;;;;6143668;23;20032;-84
2021/09/17 00:55:24;;;;;;;27.70;19.23;;;13.80;99.90;;;;;;6193427;23;20017;-84
2021/09/17 00:57:50;;;;;;;29.73;20.70;;;13.80;99.90;;;;;;6144027;23;20009;-85
2021/09/17 01:00:16;;;;;;;30.10;20.08;;;13.80;99.90;;;;;;6168621;23;20029;-84
2021/09/17 01:02:42;;;;;;;24.83;18.05;;;13.80;99.90;;;;;;6168484;23;20013;-84
2021/09/17 01:05:10;;;;;;;29.08;19.73;;;13.80;99.90;;;;;;6168601;23;20009;-85
2021/09/17 01:07:36;;;;;;;30.60;19.60;;;13.90;99.90;;;;;;6116172;23;20029;-83
2021/09/17 01:10:03;;;;;;;29.70;20.77;;;13.80;99.90;;;;;;6168679;23;20009;-84
2021/09/17 01:12:29;;;;;;;28.80;19.65;;;13.90;99.90;;;;;;6168853;23;20061;-84
2021/09/17 01:14:55;;;;;;;30.25;20.52;;;13.80;99.90;;;;;;6168281;23;20036;-84
2021/09/17 01:17:21;;;;;;;31.50;20.67;;;13.80;99.90;;;;;;6143749;23;20009;-84
2021/09/17 01:19:47;;;;;;;33.05;21.38;;;13.90;99.90;;;;;;6168993;23;20048;-85
2021/09/17 01:22:13;;;;;;;29.30;21.00;;;13.80;99.90;;;;;;6144301;23;20016;-84
2021/09/17 01:24:39;;;;;;;33.13;20.17;;;13.90;99.90;;;;;;6170072;23;20020;-85
2021/09/17 01:27:07;;;;;;;30.60;21.35;;;13.90;99.90;;;;;;6143761;23;20036;-85
2021/09/17 01:29:33;;;;;;;29.90;20.75;;;13.90;99.90;;;;;;6168829;23;20454;-84
2021/09/17 01:31:59;;;;;;;32.25;20.88;;;13.90;99.90;;;;;;6121041;23;20010;-85
2021/09/17 01:34:25;;;;;;;29.65;20.83;;;13.90;99.90;;;;;;6169946;23;20060;-84
2021/09/17 01:36:52;;;;;;;33.05;23.20;;;13.90;99.90;;;;;;6170587;23;20013;-84
2021/09/17 01:39:19;;;;;;;31.35;20.60;;;13.90;99.90;;;;;;6145942;23;20009;-85
2021/09/17 01:41:47;;;;;;;31.15;22.27;;;13.90;99.90;;;;;;6170688;23;20012;-84
2021/09/17 01:44:12;;;;;;;30.50;21.25;;;13.90;99.90;;;;;;6121012;23;20327;-84
2021/09/17 01:46:38;;;;;;;28.67;20.33;;;13.90;99.90;;;;;;6170243;23;20021;-84
2021/09/17 01:49:04;;;;;;;34.55;22.20;;;14.00;99.90;;;;;;6170101;23;20009;-85
2021/09/17 01:51:30;;;;;;;36.00;22.48;;;13.90;99.90;;;;;;6170505;23;20062;-84
2021/09/17 01:53:55;;;;;;;31.73;21.60;;;13.90;99.90;;;;;;6170628;23;20041;-84
2021/09/17 01:56:23;;;;;;;34.78;22.85;;;13.90;99.90;;;;;;6195543;23;20092;-85
2021/09/17 01:58:49;;;;;;;32.58;22.05;;;14.00;99.90;;;;;;6170282;23;20057;-85
2021/09/17 02:01:15;;;;;;;33.00;22.40;;;14.00;99.90;;;;;;6170580;23;20065;-84
2021/09/17 02:03:41;;;;;;;30.80;21.80;;;14.00;99.90;;;;;;6170059;23;20041;-85
2021/09/17 02:06:06;;;;;;;32.03;21.70;;;14.00;99.90;;;;;;6170412;23;20021;-85
2021/09/17 02:08:32;;;;;;;32.95;23.13;;;13.90;99.90;;;;;;6170456;23;20458;-85
2021/09/17 02:10:58;;;;;;;31.88;22.85;;;13.90;99.90;;;;;;6170573;23;20009;-85
2021/09/17 02:13:24;;;;;;;34.97;23.20;;;13.90;99.90;;;;;;6194909;23;20009;-84
2021/09/17 02:15:51;;;;;;;34.25;21.70;;;14.00;99.90;;;;;;6170275;23;20476;-85
2021/09/17 02:18:18;;;;;;;34.25;23.00;;;14.00;99.90;;;;;;6145812;23;20021;-85
2021/09/17 02:20:44;;;;;;;33.35;22.77;;;14.10;99.90;;;;;;6121289;23;20009;-84
2021/09/17 02:23:10;;;;;;;36.80;23.58;;;14.00;99.90;;;;;;6144841;23;20021;-84
2021/09/17 02:25:35;;;;;;;34.22;22.98;;;14.00;99.90;;;;;;6145486;23;20021;-84
2021/09/17 02:28:01;;;;;;;33.60;21.98;;;14.00;99.90;;;;;;6170401;23;20029;-84
2021/09/17 02:30:27;;;;;;;39.47;25.40;;;14.00;99.90;;;;;;6170083;23;20040;-84
2021/09/17 02:32:52;;;;;;;39.65;26.50;;;14.10;99.90;;;;;;6170638;23;20028;-84
2021/09/17 02:35:18;;;;;;;35.95;23.77;;;14.00;99.90;;;;;;6162690;23;20020;-84
2021/09/17 02:37:44;;;;;;;36.13;24.55;;;14.00;99.90;;;;;;6169652;23;20064;-84
2021/09/17 02:40:12;;;;;;;32.97;22.50;;;14.00;99.90;;;;;;6170032;23;20443;-83
2021/09/17 02:42:38;;;;;;;34.55;22.23;;;14.00;99.90;;;;;;6169574;23;20021;-84
2021/09/17 02:45:06;;;;;;;38.17;25.42;;;14.10;99.90;;;;;;6169233;23;20017;-83
2021/09/17 02:47:32;;;;;;;34.92;24.05;;;14.00;99.90;;;;;;6116350;23;20038;-85
2021/09/17 02:49:57;;;;;;;31.45;21.08;;;14.10;99.90;;;;;;6145145;23;20463;-84
2021/09/17 02:52:24;;;;;;;37.70;26.27;;;14.10;99.90;;;;;;6169741;23;20009;-86
2021/09/17 02:54:50;;;;;;;35.28;24.23;;;14.10;99.90;;;;;;6169683;23;20010;-85
2021/09/17 02:57:16;;;;;;;39.65;24.63;;;14.00;99.90;;;;;;6169978;23;20005;-85
2021/09/17 02:59:42;;;;;;;38.50;25.08;;;14.00;99.90;;;;;;6169756;23;20001;-85
2021/09/17 03:02:08;;;;;;;38.38;26.27;;;14.20;99.90;;;;;;6169869;23;20382;-85
2021/09/17 03:04:33;;;;;;;37.72;24.52;;;14.10;99.90;;;;;;6169522;23;20068;-85
2021/09/17 03:06:59;;;;;;;36.60;24.50;;;14.10;99.90;;;;;;6169513;23;20367;-85
2021/09/17 03:09:25;;;;;;;36.15;23.55;;;14.10;99.90;;;;;;6169746;23;20404;-85
2021/09/17 03:11:52;;;;;;;37.08;24.45;;;14.10;99.90;;;;;;6144830;23;20006;-85
2021/09/17 03:14:18;;;;;;;39.65;26.38;;;14.20;99.90;;;;;;6169518;23;20036;-85
2021/09/17 03:16:44;;;;;;;37.28;24.40;;;14.20;99.90;;;;;;6169594;23;20458;-85
2021/09/17 03:19:10;;;;;;;37.47;25.27;;;14.20;99.90;;;;;;6169674;23;20006;-85
2021/09/17 03:21:35;;;;;;;35.65;23.90;;;14.10;99.90;;;;;;6169693;23;20100;-85
2021/09/17 03:24:01;;;;;;;37.83;23.85;;;14.10;99.90;;;;;;6169299;23;20386;-84
2021/09/17 03:26:27;;;;;;;35.38;22.95;;;14.10;99.90;;;;;;6169301;23;20021;-85
2021/09/17 03:28:52;;;;;;;36.17;24.00;;;14.10;99.90;;;;;;6169765;23;20014;-86
2021/09/17 03:31:18;;;;;;;39.08;24.90;;;14.10;99.90;;;;;;6162683;23;20005;-84
2021/09/17 03:33:44;;;;;;;38.78;25.45;;;14.10;99.90;;;;;;6169344;23;20011;-85
2021/09/17 03:36:09;;;;;;;37.58;24.63;;;14.10;99.90;;;;;;6169379;23;20033;-85
2021/09/17 03:38:35;;;;;;;37.33;25.40;;;14.10;99.90;;;;;;6169446;23;20061;-85
2021/09/17 03:41:02;;;;;;;45.85;27.35;;;14.20;99.90;;;;;;6169315;23;20032;-85
2021/09/17 03:43:27;;;;;;;40.65;25.63;;;14.10;99.90;;;;;;6144542;23;20041;-84
2021/09/17 03:45:53;;;;;;;38.55;24.95;;;14.20;99.90;;;;;;6144687;23;20013;-85
2021/09/17 03:48:22;;;;;;;40.97;26.13;;;14.10;99.90;;;;;;6169357;23;20016;-85
2021/09/17 03:50:47;;;;;;;39.08;25.35;;;14.20;99.90;;;;;;6169440;23;20006;-85
2021/09/17 03:53:13;;;;;;;40.42;25.58;;;14.10;99.90;;;;;;6169279;23;20088;-85
2021/09/17 03:55:39;;;;;;;37.58;24.20;;;14.10;99.90;;;;;;6169495;23;20010;-85
2021/09/17 03:58:05;;;;;;;39.72;25.00;;;14.10;99.90;;;;;;6169244;23;20032;-85
2021/09/17 04:00:32;;;;;;;39.72;24.75;;;14.20;99.90;;;;;;6169232;23;20005;-85
2021/09/17 04:02:58;;;;;;;39.58;24.70;;;14.20;99.90;;;;;;6169387;23;20013;-84
2021/09/17 04:05:23;;;;;;;37.10;24.50;;;14.10;99.90;;;;;;6194170;23;20020;-84
2021/09/17 04:07:49;;;;;;;41.15;25.60;;;14.10;99.90;;;;;;6144397;23;20485;-84
2021/09/17 04:10:16;;;;;;;36.97;23.95;;;14.00;99.90;;;;;;6170773;23;20009;-84
2021/09/17 04:12:43;;;;;;;38.63;23.85;;;14.10;99.90;;;;;;6144575;23;20010;-84
2021/09/17 04:15:09;;;;;;;39.75;25.88;;;14.10;99.90;;;;;;6170306;23;20006;-84
2021/09/17 04:17:35;;;;;;;36.13;24.58;;;14.00;99.90;;;;;;6171190;23;20090;-85
2021/09/17 04:20:01;;;;;;;40.35;23.98;;;14.00;99.90;;;;;;6169413;23;20443;-85
2021/09/17 04:22:33;;;;;;;38.55;24.40;;;14.10;99.90;;;;;;6168875;23;20010;-84
2021/09/17 04:24:59;;;;;;;40.40;24.48;;;14.10;99.90;;;;;;6169220;23;20465;-85
2021/09/17 04:27:34;;;;;;;38.40;23.70;;;14.10;99.90;;;;;;6169092;23;20076;-85
2021/09/17 04:29:59;;;;;;;38.00;24.27;;;14.10;99.90;;;;;;6194253;23;20010;-85
2021/09/17 04:32:25;;;;;;;37.17;23.38;;;14.00;99.90;;;;;;6169145;23;20012;-85
2021/09/17 04:34:58;;;;;;;36.70;23.08;;;14.10;99.90;;;;;;6169152;23;20057;-85
2021/09/17 04:37:23;;;;;;;38.55;25.45;;;14.00;99.90;;;;;;6168390;23;20076;-85
2021/09/17 04:39:52;;;;;;;36.67;22.52;;;13.90;99.90;;;;;;6169017;23;20021;-85
2021/09/17 04:42:18;;;;;;;37.42;23.80;;;14.00;99.90;;;;;;6168951;23;20009;-84
2021/09/17 04:44:44;;;;;;;40.58;25.38;;;14.00;99.90;;;;;;6168354;23;20033;-85
2021/09/17 04:47:10;;;;;;;38.95;25.33;;;14.00;99.90;;;;;;6144038;23;20006;-85
2021/09/17 04:49:35;;;;;;;40.75;24.60;;;14.10;99.90;;;;;;6144513;23;20021;-85
2021/09/17 04:52:01;;;;;;;39.88;23.92;;;14.10;99.90;;;;;;6168675;23;20029;-85
2021/09/17 04:54:27;;;;;;;40.47;26.10;;;14.10;99.90;;;;;;6168638;23;20005;-86
2021/09/17 04:56:55;;;;;;;39.38;24.83;;;14.10;99.90;;;;;;6168580;23;20092;-85
2021/09/17 04:59:21;;;;;;;38.05;24.30;;;14.10;99.90;;;;;;6168764;23;20005;-85
2021/09/17 05:01:47;;;;;;;35.50;23.10;;;14.10;99.90;;;;;;6169720;23;20013;-85
2021/09/17 05:04:13;;;;;;;38.13;24.05;;;14.10;99.90;;;;;;6169355;23;20021;-85
2021/09/17 05:06:38;;;;;;;40.15;25.45;;;14.10;99.90;;;;;;6168471;23;20096;-84
2021/09/17 05:09:04;;;;;;;37.60;23.90;;;14.10;99.90;;;;;;6168530;23;20064;-84
2021/09/17 05:11:30;;;;;;;37.75;24.27;;;14.10;99.90;;;;;;6168816;23;20005;-85
2021/09/17 05:13:56;;;;;;;38.58;24.25;;;14.10;99.90;;;;;;6168118;23;20086;-84
2021/09/17 05:16:21;;;;;;;37.78;24.00;;;14.10;99.90;;;;;;6168738;23;20005;-84
2021/09/17 05:18:47;;;;;;;41.88;24.95;;;14.10;99.90;;;;;;6143861;23;20013;-84
2021/09/17 05:21:13;;;;;;;36.83;24.63;;;14.10;99.90;;;;;;6168821;23;20049;-84
2021/09/17 05:23:39;;;;;;;38.85;25.15;;;14.10;99.90;;;;;;6168208;23;20017;-85
2021/09/17 05:26:05;;;;;;;39.10;24.13;;;14.10;99.90;;;;;;6143899;23;20006;-85
2021/09/17 05:28:32;;;;;;;36.03;23.92;;;14.10;99.90;;;;;;6168551;23;20078;-84
2021/09/17 05:30:58;;;;;;;35.95;23.85;;;14.20;99.90;;;;;;6193597;23;20450;-86
2021/09/17 05:33:23;;;;;;;40.15;25.27;;;14.30;99.90;;;;;;6166720;23;20020;-86
2021/09/17 05:35:49;;;;;;;38.90;24.70;;;14.30;99.90;;;;;;6167507;23;20033;-86
2021/09/17 05:38:14;;;;;;;36.88;22.90;;;14.20;99.90;;;;;;6167551;23;20001;-86
2021/09/17 05:40:40;;;;;;;39.53;25.25;;;14.30;99.90;;;;;;6167759;23;20072;-87
2021/09/17 05:43:06;;;;;;;37.63;23.90;;;14.30;99.90;;;;;;6167104;23;20025;-87
2021/09/17 05:45:32;;;;;;;40.00;24.25;;;14.30;99.90;;;;;;6142761;23;20018;-86
2021/09/17 05:47:58;;;;;;;40.20;24.63;;;14.40;99.90;;;;;;6167319;23;20044;-86
2021/09/17 05:50:24;;;;;;;42.60;25.85;;;14.40;99.90;;;;;;6142946;23;20006;-87
2021/09/17 05:52:50;;;;;;;39.58;23.98;;;14.40;99.90;;;;;;6167730;23;20002;-87
2021/09/17 05:55:16;;;;;;;40.15;24.42;;;14.40;99.90;;;;;;6167338;23;20021;-87
2021/09/17 05:57:42;;;;;;;38.97;24.38;;;14.50;99.90;;;;;;6167601;23;20137;-86
2021/09/17 06:00:10;;;;;;;47.17;27.52;;;14.50;99.90;;;;;;6167503;23;20024;-86
2021/09/17 06:02:38;;;;;;;44.97;26.20;;;14.50;99.90;;;;;;6143469;23;20010;-86
2021/09/17 06:05:05;;;;;;;37.90;24.40;;;14.50;99.90;;;;;;6142240;23;20016;-87
2021/09/17 06:07:30;;;;;;;41.97;26.17;;;14.50;99.90;;;;;;6142838;23;20092;-86
2021/09/17 06:09:57;;;;;;;36.50;23.80;;;14.50;99.90;;;;;;6167736;23;20009;-87
2021/09/17 06:12:22;;;;;;;35.28;23.80;;;14.50;99.90;;;;;;6167244;23;20006;-87
2021/09/17 06:14:48;;;;;;;39.90;26.48;;;14.60;99.90;;;;;;6167216;23;20013;-86
2021/09/17 06:17:13;;;;;;;37.40;23.90;;;14.60;99.90;;;;;;6167874;23;20002;-86
2021/09/17 06:19:39;;;;;;;36.45;24.65;;;14.70;99.90;;;;;;6169103;23;20339;-87
2021/09/17 06:22:05;;;;;;;39.25;23.65;;;14.70;99.90;;;;;;6169396;23;20029;-86
2021/09/17 06:24:30;;;;;;;37.42;23.65;;;14.70;99.90;;;;;;6168947;23;20010;-86
2021/09/17 06:26:56;;;;;;;40.35;25.20;;;14.70;99.90;;;;;;6169336;23;20005;-86
2021/09/17 06:29:22;;;;;;;40.10;24.08;;;14.70;99.90;;;;;;6169050;23;20024;-86
2021/09/17 06:31:48;;;;;;;40.00;24.35;;;14.80;99.90;;;;;;6169409;23;20016;-86
2021/09/17 06:34:13;;;;;;;37.20;23.75;;;14.80;99.90;;;;;;6168576;23;20016;-86
2021/09/17 06:36:39;;;;;;;37.00;23.88;;;14.80;99.90;;;;;;6169028;23;20004;-86
2021/09/17 06:39:05;;;;;;;37.55;23.35;;;14.90;99.90;;;;;;6193905;23;20009;-86
2021/09/17 06:41:30;;;;;;;36.33;23.52;;;14.80;99.90;;;;;;6169344;23;20342;-85
2021/09/17 06:43:57;;;;;;;36.10;23.27;;;14.90;99.90;;;;;;6168611;23;20022;-87
2021/09/17 06:46:23;;;;;;;35.33;23.55;;;14.90;99.90;;;;;;6170224;23;20079;-86
2021/09/17 06:48:49;;;;;;;38.10;24.27;;;15.00;99.90;;;;;;6168884;23;20014;-86
2021/09/17 06:51:15;;;;;;;37.65;24.60;;;15.00;99.90;;;;;;6193815;23;20017;-86
2021/09/17 06:53:40;;;;;;;35.33;23.42;;;15.00;99.90;;;;;;6168927;23;20061;-84
2021/09/17 06:56:06;;;;;;;33.33;21.60;;;15.00;99.90;;;;;;6168879;23;20005;-86
2021/09/17 06:58:32;;;;;;;33.55;23.50;;;15.10;99.90;;;;;;6168916;23;20020;-87
2021/09/17 07:00:59;;;;;;;37.90;25.23;;;15.20;99.90;;;;;;6169134;23;20096;-88
2021/09/17 07:03:25;;;;;;;33.97;23.67;;;15.20;99.90;;;;;;6168232;23;20112;-88
2021/09/17 07:05:51;;;;;;;39.53;25.17;;;15.30;99.90;;;;;;6144093;23;20002;-88
2021/09/17 07:08:18;;;;;;;36.47;23.88;;;15.30;99.90;;;;;;6144389;23;20091;-87
2021/09/17 07:10:45;;;;;;;31.45;22.85;;;15.40;99.90;;;;;;6144074;23;20010;-87
2021/09/17 07:13:11;;;;;;;36.00;24.85;;;15.40;99.90;;;;;;6168725;23;20319;-88
2021/09/17 07:15:37;;;;;;;33.92;23.33;;;15.40;99.90;;;;;;6144137;23;20063;-88
2021/09/17 07:18:05;;;;;;;33.25;22.63;;;15.50;99.90;;;;;;6143586;23;20006;-87
2021/09/17 07:20:31;;;;;;;30.20;22.10;;;15.60;99.90;;;;;;6119695;23;20053;-88
2021/09/17 07:22:57;;;;;;;32.30;23.08;;;15.60;99.90;;;;;;6119406;23;20010;-87
2021/09/17 07:25:22;;;;;;;33.85;23.92;;;15.70;99.90;;;;;;6168582;23;20020;-87
2021/09/17 07:27:48;;;;;;;34.00;23.70;;;15.70;99.90;;;;;;6168529;23;20028;-86
2021/09/17 07:30:15;;;;;;;34.17;23.40;;;15.60;99.90;;;;;;6168178;23;20045;-87
2021/09/17 07:32:42;;;;;;;32.60;23.02;;;15.70;99.90;;;;;;6119614;23;20015;-87
2021/09/17 07:35:08;;;;;;;33.92;23.35;;;15.80;99.90;;;;;;6143786;23;20013;-87
2021/09/17 07:37:34;;;;;;;29.35;21.90;;;15.80;99.90;;;;;;6168688;23;20005;-87
2021/09/17 07:40:00;;;;;;;36.90;23.98;;;15.90;99.90;;;;;;6168418;23;20060;-87
2021/09/17 07:42:25;;;;;;;28.58;22.13;;;15.90;99.90;;;;;;6168355;23;20046;-86
2021/09/17 07:44:51;;;;;;;28.50;21.83;;;16.00;99.90;;;;;;6135424;23;20032;-87
2021/09/17 07:47:17;;;;;;;29.45;22.38;;;16.10;99.90;;;;;;6168143;23;20005;-87
2021/09/17 07:49:42;;;;;;;28.52;22.50;;;16.10;99.90;;;;;;6168343;23;20009;-86
2021/09/17 07:52:08;;;;;;;28.85;21.38;;;16.20;99.90;;;;;;6168706;23;20006;-86
2021/09/17 07:54:34;;;;;;;28.98;22.50;;;16.30;99.90;;;;;;6168002;23;20016;-85
2021/09/17 07:56:59;;;;;;;32.17;22.38;;;16.30;99.90;;;;;;6168246;23;20040;-86
2021/09/17 07:59:25;;;;;;;28.05;21.65;;;16.30;99.90;;;;;;6168728;23;20005;-86
2021/09/17 08:01:51;;;;;;;29.23;22.42;;;16.40;99.90;;;;;;6168391;23;20055;-86
2021/09/17 08:04:16;;;;;;;32.50;23.38;;;16.40;99.90;;;;;;6167625;23;20064;-85
2021/09/17 08:06:42;;;;;;;32.97;23.90;;;16.50;99.90;;;;;;6168475;23;20005;-85
2021/09/17 08:09:08;;;;;;;27.83;21.67;;;16.60;99.90;;;;;;6143953;23;20018;-85
2021/09/17 08:11:34;;;;;;;29.00;21.83;;;16.70;99.90;;;;;;6143662;23;20406;-85
2021/09/17 08:14:00;;;;;;;29.38;21.52;;;16.80;99.90;;;;;;6168062;23;20024;-85
2021/09/17 08:16:26;;;;;;;27.58;21.55;;;16.90;99.90;;;;;;6119338;23;20009;-85
2021/09/17 08:18:51;;;;;;;29.20;20.88;;;17.10;99.90;;;;;;6168337;23;20010;-85
2021/09/17 08:21:17;;;;;;;26.77;20.52;;;17.20;99.90;;;;;;6143661;23;20037;-86
2021/09/17 08:23:43;;;;;;;26.98;20.45;;;17.10;99.90;;;;;;6168167;23;20017;-85
2021/09/17 08:26:09;;;;;;;26.90;20.95;;;17.20;99.90;;;;;;6168242;23;20005;-86
2021/09/17 08:28:35;;;;;;;26.15;19.92;;;17.20;99.90;;;;;;6168132;23;20100;-85
2021/09/17 08:31:03;;;;;;;26.80;19.42;;;17.30;99.90;;;;;;6168632;23;20032;-85
2021/09/17 08:33:30;;;;;;;24.00;18.83;;;17.30;99.90;;;;;;6143509;23;20005;-85
2021/09/17 08:35:58;;;;;;;24.30;19.45;;;17.40;99.90;;;;;;6168621;23;20088;-86
2021/09/17 08:38:24;;;;;;;23.85;18.58;;;17.40;99.90;;;;;;6168276;23;20033;-85
2021/09/17 08:40:54;;;;;;;24.60;19.10;;;17.40;99.90;;;;;;6167635;23;20504;-85
2021/09/17 08:43:21;;;;;;;27.20;21.77;;;17.40;99.90;;;;;;6167895;23;20465;-85
2021/09/17 08:45:47;;;;;;;25.02;18.48;;;17.30;99.90;;;;;;6167382;23;20020;-86
2021/09/17 08:48:15;;;;;;;22.92;17.77;;;17.40;99.90;;;;;;6143619;23;20035;-85
2021/09/17 08:50:44;;;;;;;22.77;18.33;;;17.60;99.90;;;;;;6143545;23;20001;-85
2021/09/17 08:53:14;;;;;;;21.98;15.93;;;17.60;99.90;;;;;;6143176;23;20420;-84
2021/09/17 08:55:39;;;;;;;22.83;15.93;;;17.70;99.90;;;;;;6143281;23;20012;-85
2021/09/17 08:58:05;;;;;;;20.15;16.45;;;17.70;99.90;;;;;;6167808;23;20013;-84
2021/09/17 09:00:30;;;;;;;20.30;16.85;;;17.70;99.90;;;;;;6168098;23;20370;-85
2021/09/17 09:02:57;;;;;;;21.38;16.92;;;17.80;99.90;;;;;;6167542;23;20037;-84
2021/09/17 09:05:31;;;;;;;18.38;13.30;;;18.20;99.90;;;;;;6167638;23;20036;-85
2021/09/17 09:07:57;;;;;;;23.08;16.73;;;18.40;99.90;;;;;;6167759;23;20013;-85
2021/09/17 09:10:23;;;;;;;19.92;15.38;;;18.30;99.90;;;;;;6143063;23;20069;-84
2021/09/17 09:12:55;;;;;;;18.77;15.10;;;18.50;99.90;;;;;;6143266;23;20028;-85
2021/09/17 09:15:25;;;;;;;21.23;14.98;;;18.40;99.90;;;;;;6168708;23;20006;-84
2021/09/17 09:17:52;;;;;;;20.35;16.42;;;18.60;99.90;;;;;;6142936;23;20013;-85
2021/09/17 09:20:35;;;;;;;19.77;14.10;;;18.60;99.90;;;;;;6118844;23;20404;-84
2021/09/17 09:23:14;;;;;;;16.90;13.25;;;18.90;99.90;;;;;;6118395;23;20009;-84
2021/09/17 09:25:59;;;;;;;17.70;13.32;;;19.10;99.90;;;;;;6192318;23;20048;-83
2021/09/17 09:28:35;;;;;;;14.73;12.30;;;19.20;99.90;;;;;;6142333;23;20014;-83
2021/09/17 09:31:09;;;;;;;19.73;13.02;;;19.40;99.90;;;;;;6167026;23;20107;-82
2021/09/17 09:33:40;;;;;;;17.35;14.63;;;19.90;99.90;;;;;;6167293;23;20045;-83
2021/09/17 09:36:09;;;;;;;17.90;12.90;;;19.90;99.90;;;;;;6113354;23;20328;-83
2021/09/17 09:38:40;;;;;;;16.48;12.52;;;19.60;99.90;;;;;;6135122;23;20419;-83
2021/09/17 09:41:12;;;;;;;15.27;12.23;;;19.50;99.90;;;;;;6157554;23;20005;-83
2021/09/17 09:43:59;;;;;;;13.00;10.10;;;19.70;99.90;;;;;;6166565;23;20017;-82
2021/09/17 09:46:29;;;;;;;12.18;9.32;;;20.20;99.90;;;;;;6126068;23;20049;-82
2021/09/17 09:49:22;;;;;;;19.13;14.80;;;20.40;99.90;;;;;;6142965;23;20002;-81
2021/09/17 09:52:01;;;;;;;19.02;15.73;;;19.80;99.90;;;;;;6118689;23;20010;-83
2021/09/17 09:54:31;;;;;;;16.20;12.32;;;19.80;99.90;;;;;;6144958;23;20076;-82
2021/09/17 09:56:59;;;;;;;15.52;11.50;;;20.20;99.90;;;;;;6169670;23;20010;-82
2021/09/17 09:59:30;;;;;;;14.02;9.80;;;20.20;99.90;;;;;;6144758;23;20005;-82
2021/09/17 10:02:01;;;;;;;12.07;9.80;;;20.50;99.90;;;;;;6169273;23;20009;-82
2021/09/17 10:04:32;;;;;;;17.20;13.50;;;20.50;99.90;;;;;;6144948;23;20060;-83
2021/09/17 10:07:06;;;;;;;11.95;10.23;;;20.20;99.90;;;;;;6169485;23;20118;-83
2021/09/17 10:09:35;;;;;;;17.90;14.00;;;20.40;99.90;;;;;;6169550;23;20014;-83
2021/09/17 10:12:07;;;;;;;13.27;10.55;;;20.00;99.90;;;;;;6169240;23;20438;-83
2021/09/17 10:14:34;;;;;;;15.05;12.05;;;20.30;99.90;;;;;;6144114;23;20009;-83
2021/09/17 10:17:07;;;;;;;21.98;16.73;;;20.30;99.90;;;;;;6144138;23;20013;-83
2021/09/17 10:19:35;;;;;;;14.95;12.25;;;20.00;99.90;;;;;;6143428;23;20005;-83
2021/09/17 10:22:02;;;;;;;21.30;16.55;;;20.00;99.90;;;;;;6168985;23;20009;-84
2021/09/17 10:24:27;;;;;;;16.35;12.40;;;20.00;99.90;;;;;;6169103;23;20037;-83
2021/09/17 10:26:57;;;;;;;18.83;16.10;;;20.30;99.90;;;;;;6144456;23;20005;-83
2021/09/17 10:29:33;;;;;;;;;;;19.70;99.90;;;;;;6144830;23;20026;-82
2021/09/17 10:32:02;;;;;;;21.90;18.35;;;20.00;99.90;;;;;;6144044;23;20007;-83
2021/09/17 10:34:40;;;;;;;18.38;11.82;;;19.70;99.90;;;;;;6168902;23;20040;-81
2021/09/17 10:37:07;;;;;;;13.65;10.38;;;20.00;99.90;;;;;;6168830;23;20016;-82
2021/09/17 10:39:33;;;;;;;14.80;11.95;;;20.40;99.90;;;;;;6168813;23;20012;-82
2021/09/17 10:42:10;;;;;;;17.60;12.90;;;20.40;99.90;;;;;;6168602;23;20013;-82
2021/09/17 10:45:01;;;;;;;16.27;11.43;;;20.30;99.90;;;;;;6167631;23;20021;-82
2021/09/17 10:47:44;;;;;;;21.75;15.57;;;20.60;99.90;;;;;;6082988;23;20028;-83
2021/09/17 10:50:13;;;;;;;16.65;12.88;;;20.20;99.90;;;;;;6119461;23;20092;-83
2021/09/17 10:52:41;;;;;;;14.73;11.05;;;20.40;99.90;;;;;;6168222;23;20010;-82
2021/09/17 10:55:29;;;;;;;8.43;6.07;;;20.80;99.90;;;;;;6144030;23;20020;-82
2021/09/17 10:58:26;;;;;;;21.60;15.95;;;20.80;99.90;;;;;;6168048;23;20012;-83
2021/09/17 11:00:58;;;;;;;14.18;11.85;;;19.90;99.90;;;;;;6143943;23;20013;-83
2021/09/17 11:03:36;;;;;;;12.27;9.25;;;20.20;99.90;;;;;;6141269;23;20041;-83
2021/09/17 11:06:21;;;;;;;19.92;15.25;;;20.50;99.90;;;;;;6119015;23;20034;-83
2021/09/17 11:08:51;;;;;;;22.58;16.50;;;20.00;99.90;;;;;;6143774;23;20083;-83
2021/09/17 11:11:38;;;;;;;24.70;18.52;;;19.90;99.90;;;;;;6143904;23;20341;-82
2021/09/17 11:14:34;;;;;;;19.42;15.05;;;19.60;99.90;;;;;;6119162;23;20009;-83
2021/09/17 11:17:00;;;;;;;26.55;18.98;;;19.80;99.90;;;;;;6143431;23;20051;-82
2021/09/17 11:19:25;;;;;;;17.35;12.65;;;19.70;99.90;;;;;;6143858;23;20072;-82
2021/09/17 11:21:51;;;;;;;14.43;10.52;;;20.20;99.90;;;;;;6168531;23;20040;-81
2021/09/17 11:24:16;;;;;;;19.00;15.20;;;20.70;99.90;;;;;;6142590;23;20017;-82
2021/09/17 11:26:47;;;;;;;22.40;18.25;;;20.90;99.90;;;;;;6169894;23;20061;-83
2021/09/17 11:29:18;;;;;;;19.67;12.98;;;20.70;99.90;;;;;;6168039;23;20044;-82
2021/09/17 11:31:50;;;;;;;16.50;12.13;;;21.40;99.90;;;;;;6163688;23;20009;-84
2021/09/17 11:34:18;;;;;;;11.35;8.10;;;21.30;99.90;;;;;;6162789;23;20017;-82
2021/09/17 11:36:48;;;;;;;12.55;8.38;;;21.60;99.90;;;;;;6142043;23;20467;-83
2021/09/17 11:39:31;;;;;;;20.00;14.13;;;21.60;99.90;;;;;;6117812;23;20010;-82
2021/09/17 11:42:05;;;;;;;20.73;16.00;;;21.30;99.90;;;;;;6166520;23;20009;-80
2021/09/17 11:44:32;;;;;;;23.08;17.42;;;20.70;99.90;;;;;;6140301;23;20021;-82
2021/09/17 11:46:58;;;;;;;23.10;17.92;;;20.40;99.90;;;;;;6099139;23;20052;-82
2021/09/17 11:49:26;;;;;;;18.70;13.65;;;20.40;99.90;;;;;;6137206;23;20010;-82
2021/09/17 11:52:00;;;;;;;15.75;12.15;;;20.60;99.90;;;;;;6137295;23;20053;-81
2021/09/17 11:54:26;;;;;;;28.77;20.02;;;20.70;99.90;;;;;;6136579;23;20390;-82
2021/09/17 11:57:02;;;;;;;17.58;11.80;;;20.40;99.90;;;;;;6137971;23;20002;-82
2021/09/17 11:59:39;;;;;;;28.23;19.73;;;20.70;99.90;;;;;;6136860;23;20010;-83
2021/09/17 12:02:13;;;;;;;26.35;19.38;;;20.30;99.90;;;;;;6138076;23;20006;-81
2021/09/17 12:04:40;;;;;;;27.40;20.42;;;20.40;99.90;;;;;;6112236;23;20161;-83
2021/09/17 12:07:06;;;;;;;26.33;19.92;;;20.30;99.90;;;;;;6136746;23;20065;-81
2021/09/17 12:09:32;;;;;;;27.60;19.80;;;20.20;99.90;;;;;;6112222;23;20014;-82
2021/09/17 12:11:59;;;;;;;23.70;18.90;;;20.00;99.90;;;;;;6138743;23;20029;-82
2021/09/17 12:14:25;;;;;;;29.60;22.38;;;20.20;99.90;;;;;;6136729;23;20017;-82
2021/09/17 12:16:50;;;;;;;26.17;19.67;;;20.00;99.90;;;;;;6136782;23;20005;-83
2021/09/17 12:19:16;;;;;;;27.95;22.35;;;20.20;99.90;;;;;;6111981;23;20367;-83
2021/09/17 12:21:42;;;;;;;23.00;15.88;;;20.30;99.90;;;;;;6111888;23;20006;-83
2021/09/17 12:24:19;;;;;;;26.17;20.15;;;20.40;99.90;;;;;;6112398;23;20036;-84
2021/09/17 12:26:55;;;;;;;26.58;19.63;;;20.50;99.90;;;;;;6113611;23;20017;-84
2021/09/17 12:29:23;;;;;;;29.63;21.92;;;20.50;99.90;;;;;;6107196;23;20006;-84
2021/09/17 12:31:48;;;;;;;27.63;19.25;;;20.40;99.90;;;;;;6112586;23;20009;-84